Time;durP1;ratioP1;P1;durP2;ratioP2;P2;SDS_P1;SDS_P2;PMS_P1;PMS_P2;Temp;Humidity;BMP_temperature;BMP_pressure;BME280_temperature;BME280_humidity;BME280_pressure;Samples;Min_cycle;Max_cycle;Signal;HPM_P1;HPM_P2
2021/11/09 00:02:09;;;;;;;;;;;10.90;99.90;;;;;;5096843;28;19925;-74
2021/11/09 00:04:38;;;;;;;;;;;10.90;99.90;;;;;;5096609;28;19924;-74
2021/11/09 00:07:10;;;;;;;;;;;10.80;99.90;;;;;;5096378;28;19928;-75
2021/11/09 00:09:56;;;;;;;;;;;10.80;99.90;;;;;;5096321;28;19924;-74
2021/11/09 00:12:24;;;;;;;;;;;10.80;99.90;;;;;;5096154;28;19934;-74
2021/11/09 00:14:51;;;;;;;;;;;10.80;99.90;;;;;;5096719;28;19924;-74
2021/11/09 00:17:20;;;;;;;;;;;10.70;99.90;;;;;;5096607;28;19986;-74
2021/11/09 00:19:47;;;;;;;;;;;10.70;99.90;;;;;;5096304;28;20267;-74
2021/11/09 00:22:14;;;;;;;;;;;10.70;99.90;;;;;;5096253;28;19985;-74
2021/11/09 00:24:41;;;;;;;;;;;10.80;99.90;;;;;;5096289;28;19932;-74
2021/11/09 00:27:09;;;;;;;;;;;10.80;99.90;;;;;;5096232;28;19924;-75
2021/11/09 00:29:36;;;;;;;;;;;10.90;99.90;;;;;;5096182;28;19950;-74
2021/11/09 00:32:03;;;;;;;;;;;11.00;99.90;;;;;;5096080;28;20040;-74
2021/11/09 00:34:31;;;;;;;;;;;11.00;99.90;;;;;;5096168;28;19930;-74
2021/11/09 00:36:58;;;;;;;;;;;11.10;99.90;;;;;;5095963;28;19924;-74
2021/11/09 00:39:25;;;;;;;;;;;11.10;99.90;;;;;;5095885;28;19924;-74
2021/11/09 00:41:52;;;;;;;;;;;11.10;99.90;;;;;;5095918;28;19924;-74
2021/11/09 00:44:19;;;;;;;;;;;11.10;99.90;;;;;;5095900;28;19928;-74
2021/11/09 00:46:46;;;;;;;;;;;11.20;99.90;;;;;;5095599;28;19924;-74
2021/11/09 00:49:13;;;;;;;;;;;11.20;99.90;;;;;;5096084;28;19935;-74
2021/11/09 00:51:43;;;;;;;;;;;11.20;99.90;;;;;;5094945;28;19925;-75
2021/11/09 00:54:10;;;;;;;;;;;11.20;99.90;;;;;;5095750;28;20312;-75
2021/11/09 00:56:37;;;;;;;;;;;11.20;99.90;;;;;;5095604;28;19924;-75
2021/11/09 00:59:04;;;;;;;;;;;11.20;99.90;;;;;;5095533;28;20337;-74
2021/11/09 01:01:31;;;;;;;;;;;11.30;99.90;;;;;;5095640;28;20035;-74
2021/11/09 01:03:58;;;;;;;;;;;11.20;99.90;;;;;;5095864;28;19934;-75
2021/11/09 01:06:24;;;;;;;;;;;11.30;99.90;;;;;;5095351;28;20354;-74
2021/11/09 01:08:53;;;;;;;;;;;11.30;99.90;;;;;;5095327;28;19924;-75
2021/11/09 01:11:19;;;;;;;;;;;11.30;99.90;;;;;;5095385;28;19928;-75
2021/11/09 01:13:46;;;;;;;;;;;11.30;99.90;;;;;;5095349;28;19924;-74
2021/11/09 01:16:13;;;;;;;;;;;11.30;99.90;;;;;;5095652;28;19930;-74
2021/11/09 01:18:42;;;;;;;;;;;11.30;99.90;;;;;;5094694;28;20253;-74
2021/11/09 01:21:12;;;;;;;;;;;11.30;99.90;;;;;;5094309;28;19928;-74
2021/11/09 01:23:39;;;;;;;;;;;11.30;99.90;;;;;;5095213;28;19982;-74
2021/11/09 01:26:07;;;;;;;;;;;11.40;99.90;;;;;;5095121;28;20276;-74
2021/11/09 01:28:34;;;;;;;;;;;11.40;99.90;;;;;;5095511;28;19934;-74
2021/11/09 01:31:01;;;;;;;;;;;11.40;99.90;;;;;;5094990;28;19930;-74
2021/11/09 01:33:28;;;;;;;;;;;11.40;99.90;;;;;;5095211;28;19931;-74
2021/11/09 01:35:55;;;;;;;;;;;11.40;99.90;;;;;;5095120;28;19935;-74
2021/11/09 01:38:21;;;;;;;;;;;11.40;99.90;;;;;;5095351;28;19924;-74
2021/11/09 01:40:48;;;;;;;;;;;11.40;99.90;;;;;;5094974;28;20336;-74
2021/11/09 01:43:20;;;;;;;;;;;11.40;99.90;;;;;;5094942;28;19924;-74
2021/11/09 01:45:48;;;;;;;;;;;11.40;99.90;;;;;;5094316;28;20260;-74
2021/11/09 01:48:15;;;;;;;;;;;11.40;99.90;;;;;;5095100;28;19934;-74
2021/11/09 01:50:42;;;;;;;;;;;11.40;99.90;;;;;;5094828;28;19925;-74
2021/11/09 01:53:09;;;;;;;;;;;11.40;99.90;;;;;;5094892;28;19928;-74
2021/11/09 01:55:36;;;;;;;;;;;11.40;99.90;;;;;;5095182;28;19924;-74
2021/11/09 01:58:03;;;;;;;;;;;11.40;99.90;;;;;;5094930;28;19935;-74
2021/11/09 02:00:32;;;;;;;;;;;11.40;99.90;;;;;;5095077;28;20268;-74
2021/11/09 02:02:59;;;;;;;;;;;11.40;99.90;;;;;;5096088;28;19939;-74
2021/11/09 02:05:28;;;;;;;;;;;11.40;99.90;;;;;;5099273;28;19924;-74
2021/11/09 02:07:55;;;;;;;;;;;11.40;99.90;;;;;;5098803;28;19940;-74
2021/11/09 02:10:23;;;;;;;;;;;11.40;99.90;;;;;;5099202;28;19950;-74
2021/11/09 02:12:50;;;;;;;;;;;11.40;99.90;;;;;;5098847;28;19930;-74
2021/11/09 02:15:17;;;;;;;;;;;11.40;99.90;;;;;;5098794;28;19924;-74
2021/11/09 02:17:46;;;;;;;;;;;11.40;99.90;;;;;;5099069;28;19931;-75
2021/11/09 02:20:14;;;;;;;;;;;11.40;99.90;;;;;;5098730;28;19924;-74
2021/11/09 02:22:42;;;;;;;;;;;11.40;99.90;;;;;;5098616;28;19924;-75
2021/11/09 02:25:10;;;;;;;;;;;11.40;99.90;;;;;;5098537;28;20031;-74
2021/11/09 02:27:37;;;;;;;;;;;11.40;99.90;;;;;;5098586;28;19946;-74
2021/11/09 02:30:04;;;;;;;;;;;11.30;99.90;;;;;;5098302;28;19935;-75
2021/11/09 02:32:31;;;;;;;;;;;11.30;99.90;;;;;;5098621;28;19931;-74
2021/11/09 02:34:58;;;;;;;;;;;11.20;99.90;;;;;;5098504;28;19934;-74
2021/11/09 02:37:25;;;;;;;;;;;11.20;99.90;;;;;;5098302;28;19930;-74
2021/11/09 02:39:53;;;;;;;;;;;11.20;99.90;;;;;;5098498;28;20278;-75
2021/11/09 02:42:20;;;;;;;;;;;11.10;99.90;;;;;;5098371;28;19924;-74
2021/11/09 02:44:52;;;;;;;;;;;11.10;99.90;;;;;;5098379;28;19967;-75
2021/11/09 02:47:21;;;;;;;;;;;11.00;99.90;;;;;;5098336;28;19931;-74
2021/11/09 02:49:54;;;;;;;;;;;11.00;99.90;;;;;;5098246;28;19925;-75
2021/11/09 02:52:22;;;;;;;;;;;10.90;99.90;;;;;;5098190;28;20031;-74
2021/11/09 02:54:52;;;;;;;;;;;10.90;99.90;;;;;;5097988;28;20249;-74
2021/11/09 02:57:26;;;;;;;;;;;10.90;99.90;;;;;;5097998;28;19939;-75
2021/11/09 03:00:00;;;;;;;;;;;10.80;99.90;;;;;;5097984;28;20016;-74
2021/11/09 03:02:36;;;;;;;;;;;10.80;99.90;;;;;;5097782;28;19924;-74
2021/11/09 03:05:09;;;;;;;;;;;10.80;99.90;;;;;;5097825;28;19986;-74
2021/11/09 03:07:40;;;;;;;;;;;10.80;99.90;;;;;;5098172;28;19924;-75
2021/11/09 03:10:13;;;;;;;;;;;10.80;99.90;;;;;;5097746;28;19935;-74
2021/11/09 03:12:41;;;;;;;;;;;10.80;99.90;;;;;;5097650;28;20275;-74
2021/11/09 03:15:10;;;;;;;;;;;10.80;99.90;;;;;;5096991;28;19931;-74
2021/11/09 03:17:42;;;;;;;;;;;10.80;99.90;;;;;;5097423;28;19972;-74
2021/11/09 03:20:12;;;;;;;;;;;10.80;99.90;;;;;;5098088;28;19924;-74
2021/11/09 03:44:40;;;;;;;;;;;10.70;99.90;;;;;;5080513;28;19991;-78
2021/11/09 03:47:08;;;;;;;;;;;10.70;99.90;;;;;;5077728;28;20015;-71
2021/11/09 03:49:36;;;;;;;;;;;10.70;99.90;;;;;;5076933;28;19928;-71
2021/11/09 03:52:06;;;;;;;;;;;10.70;99.90;;;;;;5076954;28;19935;-73
2021/11/09 03:54:33;;;;;;;;;;;10.70;99.90;;;;;;5076551;28;19924;-76
2021/11/09 03:57:05;;;;;;;;;;;10.70;99.90;;;;;;5076785;28;19930;-75
2021/11/09 03:59:43;;;;;;;;;;;10.80;99.90;;;;;;5076549;28;20351;-73
2021/11/09 04:02:18;;;;;;;;;;;10.80;99.90;;;;;;5076556;28;19937;-76
2021/11/09 04:04:49;;;;;;;;;;;10.80;99.90;;;;;;5075548;28;19963;-75
2021/11/09 04:07:18;;;;;;;;;;;10.80;99.90;;;;;;5076475;28;19969;-75
2021/11/09 04:09:54;;;;;;;;;;;10.80;99.90;;;;;;5076782;28;19928;-75
2021/11/09 04:15:16;;;;;;;;;;;10.80;99.90;;;;;;5075112;28;19920;-75
2021/11/09 04:18:00;;;;;;;;;;;10.80;99.90;;;;;;5076529;28;20021;-75
2021/11/09 04:20:39;;;;;;;;;;;10.80;99.90;;;;;;5076243;28;19925;-75
2021/11/09 04:28:59;;;;;;;;;;;10.70;99.90;;;;;;5071480;28;19924;-75
2021/11/09 04:31:41;;;;;;;;;;;10.60;99.90;;;;;;5076013;28;19935;-75
2021/11/09 04:34:37;;;;;;;;;;;10.60;99.90;;;;;;5074916;28;20344;-75
2021/11/09 05:10:19;;;;;;;;;;;10.30;99.90;;;;;;5033811;28;20060;-74
2021/11/09 05:12:46;;;;;;;;;;;10.30;99.90;;;;;;5034231;28;19983;-73
2021/11/09 05:15:13;;;;;;;;;;;10.30;99.90;;;;;;5033842;28;20258;-74
2021/11/09 05:17:40;;;;;;;;;;;10.30;99.90;;;;;;5033443;28;19929;-74
2021/11/09 05:20:07;;;;;;;;;;;10.40;99.90;;;;;;5035265;28;19935;-74
2021/11/09 05:22:36;;;;;;;;;;;10.30;99.90;;;;;;5075339;28;19931;-74
2021/11/09 05:25:02;;;;;;;;;;;10.30;99.90;;;;;;5075332;28;19924;-73
2021/11/09 05:27:29;;;;;;;;;;;10.30;99.90;;;;;;5075090;28;19924;-73
2021/11/09 05:29:57;;;;;;;;;;;10.30;99.90;;;;;;5075141;28;19935;-73
2021/11/09 05:32:24;;;;;;;;;;;10.30;99.90;;;;;;5075018;28;20284;-73
2021/11/09 05:34:51;;;;;;;;;;;10.30;99.90;;;;;;5075029;28;19924;-73
2021/11/09 05:37:21;;;;;;;;;;;10.30;99.90;;;;;;5074484;28;19931;-74
2021/11/09 05:39:52;;;;;;;;;;;10.30;99.90;;;;;;5075191;28;19924;-73
2021/11/09 05:42:19;;;;;;;;;;;10.30;99.90;;;;;;5075666;28;19933;-74
2021/11/09 05:44:45;;;;;;;;;;;10.30;99.90;;;;;;5075042;28;19924;-73
2021/11/09 05:47:12;;;;;;;;;;;10.40;99.90;;;;;;5075143;28;20258;-73
2021/11/09 05:49:40;;;;;;;;;;;10.40;99.90;;;;;;5075552;28;19924;-77
2021/11/09 05:52:07;;;;;;;;;;;10.40;99.90;;;;;;5075263;28;19936;-74
2021/11/09 05:54:34;;;;;;;;;;;10.50;99.90;;;;;;5074777;28;19924;-73
2021/11/09 05:57:03;;;;;;;;;;;10.50;99.90;;;;;;5074943;28;19936;-73
2021/11/09 05:59:30;;;;;;;;;;;10.50;99.90;;;;;;5074743;28;19925;-73
2021/11/09 06:01:56;;;;;;;;;;;10.60;99.90;;;;;;5074636;28;20002;-73
2021/11/09 06:04:24;;;;;;;;;;;10.60;99.90;;;;;;5075104;28;19928;-73
2021/11/09 06:06:51;;;;;;;;;;;10.60;99.90;;;;;;5075179;28;19928;-73
2021/11/09 06:09:18;;;;;;;;;;;10.60;99.90;;;;;;5074844;28;20348;-73
2021/11/09 06:11:45;;;;;;;;;;;10.70;99.90;;;;;;5074703;28;19924;-73
2021/11/09 06:14:13;;;;;;;;;;;10.70;99.90;;;;;;5074675;28;19924;-73
2021/11/09 06:16:40;;;;;;;;;;;10.70;99.90;;;;;;5074525;28;19924;-73
2021/11/09 06:19:07;;;;;;;;;;;10.80;99.90;;;;;;5074848;28;19925;-73
2021/11/09 06:21:34;;;;;;;;;;;10.80;99.90;;;;;;5074728;28;19934;-73
2021/11/09 06:24:00;;;;;;;;;;;10.80;99.90;;;;;;5074869;28;20037;-73
2021/11/09 06:26:27;;;;;;;;;;;10.90;99.90;;;;;;5074400;28;19924;-73
2021/11/09 06:28:58;;;;;;;;;;;10.90;99.90;;;;;;5074825;28;19925;-73
2021/11/09 06:31:28;;;;;;;;;;;10.90;99.90;;;;;;5074389;28;19943;-73
2021/11/09 06:33:55;;;;;;;;;;;11.00;99.90;;;;;;5074355;28;20345;-73
2021/11/09 06:36:22;;;;;;;;;;;11.00;99.90;;;;;;5074398;28;19924;-73
2021/11/09 06:38:48;;;;;;;;;;;11.00;99.90;;;;;;5074560;28;19931;-73
2021/11/09 06:41:15;;;;;;;;;;;11.00;99.90;;;;;;5074684;28;19924;-74
2021/11/09 06:43:42;;;;;;;;;;;11.00;99.90;;;;;;5074300;28;20276;-73
2021/11/09 06:46:09;;;;;;;;;;;11.00;99.90;;;;;;5074518;28;19928;-73
2021/11/09 06:48:39;;;;;;;;;;;11.00;99.90;;;;;;5074882;28;19924;-73
2021/11/09 06:51:05;;;;;;;;;;;11.00;99.90;;;;;;5077049;28;19925;-73
2021/11/09 06:53:32;;;;;;;;;;;11.10;99.90;;;;;;5077660;28;20359;-73
2021/11/09 06:55:59;;;;;;;;;;;11.10;99.90;;;;;;5077553;28;19924;-73
2021/11/09 06:58:26;;;;;;;;;;;11.10;99.90;;;;;;5077810;28;19924;-72
2021/11/09 07:00:53;;;;;;;;;;;11.10;99.90;;;;;;5077834;28;20473;-73
2021/11/09 07:03:20;;;;;;;;;;;11.10;99.90;;;;;;5077744;28;20289;-72
2021/11/09 07:05:49;;;;;;;;;;;11.20;99.90;;;;;;5077525;28;19930;-72
2021/11/09 07:08:16;;;;;;;;;;;11.10;99.90;;;;;;5077612;28;20300;-73
2021/11/09 07:10:43;;;;;;;;;;;11.10;99.90;;;;;;5077505;28;19932;-73
2021/11/09 07:13:10;;;;;;;;;;;11.00;99.90;;;;;;5077337;28;19947;-73
2021/11/09 07:15:37;;;;;;;;;;;11.00;99.90;;;;;;5077359;28;19925;-73
2021/11/09 07:18:04;;;;;;;;;;;11.00;99.90;;;;;;5077664;28;19935;-73
2021/11/09 07:20:31;;;;;;;;;;;11.00;99.90;;;;;;5077275;28;19964;-73
2021/11/09 07:23:00;;;;;;;;;;;11.00;99.90;;;;;;5077546;28;19924;-72
2021/11/09 07:25:27;;;;;;;;;;;11.00;99.90;;;;;;5077169;28;19935;-72
2021/11/09 07:27:54;;;;;;;;;;;11.00;99.90;;;;;;5077129;28;19935;-72
2021/11/09 07:30:22;;;;;;;;;;;11.00;99.90;;;;;;5077298;28;19924;-72
2021/11/09 07:32:49;;;;;;;;;;;11.00;99.90;;;;;;5076463;28;19924;-72
2021/11/09 07:35:16;;;;;;;;;;;11.00;99.90;;;;;;5077203;28;19925;-73
2021/11/09 07:37:43;;;;;;;;;;;11.10;99.90;;;;;;5077244;28;19976;-72
2021/11/09 07:40:12;;;;;;;;;;;11.10;99.90;;;;;;5077198;28;19924;-72
2021/11/09 07:42:46;;;;;;;;;;;11.20;99.90;;;;;;5076396;28;19935;-73
2021/11/09 07:45:14;;;;;;;;;;;11.20;99.90;;;;;;5076869;28;19932;-73
2021/11/09 07:47:40;;;;;;;;;;;11.20;99.90;;;;;;5076937;28;19924;-72
2021/11/09 07:50:08;;;;;;;;;;;11.20;99.90;;;;;;5076848;28;19924;-73
2021/11/09 07:52:35;;;;;;;;;;;11.20;99.90;;;;;;5076757;28;19962;-72
2021/11/09 07:55:05;;;;;;;;;;;11.20;99.90;;;;;;5076892;28;20017;-72
2021/11/09 07:57:42;;;;;;;;;;;11.30;99.90;;;;;;5076629;28;19956;-72
2021/11/09 08:00:21;;;;;;;;;;;11.30;99.90;;;;;;5076362;28;19978;-73
2021/11/09 08:02:59;;;;;;;;;;;11.30;99.90;;;;;;5076590;28;19932;-72
2021/11/09 08:05:30;;;;;;;;;;;11.30;99.90;;;;;;5076512;28;20260;-73
2021/11/09 08:08:03;;;;;;;;;;;11.30;99.90;;;;;;5076435;28;19924;-72
2021/11/09 08:10:29;;;;;;;;;;;11.30;99.90;;;;;;5076555;28;20296;-73
2021/11/09 08:12:58;;;;;;;;;;;11.40;99.90;;;;;;5076141;28;19936;-72
2021/11/09 08:15:25;;;;;;;;;;;11.40;99.90;;;;;;5076233;28;19935;-72
2021/11/09 08:17:52;;;;;;;;;;;11.50;99.90;;;;;;5076359;28;19928;-72
2021/11/09 08:20:20;;;;;;;;;;;11.60;99.90;;;;;;5076139;28;19925;-72
2021/11/09 08:22:46;;;;;;;;;;;11.60;99.90;;;;;;5075962;28;20283;-72
2021/11/09 08:25:14;;;;;;;;;;;11.70;99.90;;;;;;5076198;28;19955;-72
2021/11/09 08:27:41;;;;;;;;;;;11.80;99.90;;;;;;5075875;28;20422;-72
2021/11/09 08:30:10;;;;;;;;;;;11.80;99.90;;;;;;5075986;28;19924;-72
2021/11/09 08:32:36;;;;;;;;;;;11.90;99.90;;;;;;5075874;28;19959;-73
2021/11/09 08:35:04;;;;;;;;;;;11.90;99.90;;;;;;5076084;28;19962;-73
2021/11/09 08:37:32;;;;;;;;;;;12.00;99.90;;;;;;5075760;28;20360;-72
2021/11/09 08:40:00;;;;;;;;;;;12.00;99.90;;;;;;5075752;28;19935;-72
2021/11/09 08:42:30;;;;;;;;;;;12.00;99.90;;;;;;5075834;28;20020;-72
2021/11/09 08:45:04;;;;;;;;;;;12.00;99.90;;;;;;5075635;28;19924;-72
2021/11/09 08:47:34;;;;;;;;;;;12.00;99.90;;;;;;5075764;28;20329;-72
2021/11/09 08:50:00;;;;;;;;;;;12.00;99.90;;;;;;5075580;28;20034;-72
2021/11/09 08:52:30;;;;;;;;;;;12.00;99.90;;;;;;5075567;28;19925;-72
2021/11/09 08:55:11;;;;;;;;;;;12.00;99.90;;;;;;5075474;28;19924;-72
2021/11/09 09:05:57;;;;;;;;;;;12.10;99.90;;;;;;5033927;28;19931;-72
2021/11/09 09:08:24;;;;;;;;;;;12.10;99.90;;;;;;5033739;28;20296;-72
2021/11/09 09:10:51;;;;;;;;;;;12.10;99.90;;;;;;5033678;28;19925;-72
2021/11/09 09:13:18;;;;;;;;;;;12.10;99.90;;;;;;5033217;28;19946;-72
2021/11/09 09:15:45;;;;;;;;;;;12.10;99.90;;;;;;5033617;28;19937;-72
2021/11/09 09:18:16;;;;;;;;;;;12.10;99.90;;;;;;5033456;28;20373;-72
2021/11/09 09:20:45;;;;;;;;;;;12.10;99.90;;;;;;5033654;28;19928;-72
2021/11/09 09:23:15;;;;;;;;;;;12.10;99.90;;;;;;5033578;28;19995;-72
2021/11/09 09:25:47;;;;;;;;;;;12.20;99.90;;;;;;5033486;28;20038;-72
2021/11/09 09:53:30;;;;;;;;;;;12.50;99.90;;;;;;5033574;28;19935;-72
2021/11/09 09:55:58;;;;;;;;;;;12.50;99.90;;;;;;5033386;28;19933;-72
2021/11/09 09:58:25;;;;;;;;;;;12.50;99.90;;;;;;5033343;28;19955;-72
2021/11/09 10:00:52;;;;;;;;;;;12.50;99.90;;;;;;5033191;28;20346;-72
2021/11/09 10:03:20;;;;;;;;;;;12.60;99.90;;;;;;5033456;28;20348;-72
2021/11/09 10:05:48;;;;;;;;;;;12.60;99.90;;;;;;5062751;28;19974;-72
2021/11/09 10:08:16;;;;;;;;;;;12.60;99.90;;;;;;5074679;28;19943;-72
2021/11/09 10:10:43;;;;;;;;;;;12.70;99.90;;;;;;5074585;28;19982;-72
2021/11/09 10:13:12;;;;;;;;;;;12.60;99.90;;;;;;5074774;28;19925;-72
2021/11/09 10:15:39;;;;;;;;;;;12.70;99.90;;;;;;5074764;28;19974;-72
2021/11/09 10:18:07;;;;;;;;;;;12.80;99.90;;;;;;5074751;28;20353;-73
2021/11/09 10:20:36;;;;;;;;;;;12.80;99.90;;;;;;5074686;28;19928;-72
2021/11/09 10:23:05;;;;;;;;;;;12.80;99.90;;;;;;5074566;28;19924;-73
2021/11/09 10:25:32;;;;;;;;;;;12.90;99.90;;;;;;5078164;28;19925;-73
2021/11/09 10:28:00;;;;;;;;;;;13.00;99.90;;;;;;5078181;28;19924;-72
2021/11/09 10:30:28;;;;;;;;;;;13.00;99.90;;;;;;5078403;28;19968;-73
2021/11/09 10:32:55;;;;;;;;;;;13.10;99.90;;;;;;5078174;28;19924;-73
2021/11/09 10:35:23;;;;;;;;;;;13.10;99.90;;;;;;5078255;28;20352;-72
2021/11/09 10:37:50;;;;;;;;;;;13.10;99.90;;;;;;5078226;28;19925;-72
2021/11/09 10:40:18;;;;;;;;;;;13.10;99.90;;;;;;5077948;28;19924;-73
2021/11/09 10:42:46;;;;;;;;;;;13.10;99.90;;;;;;5077997;28;19924;-73
2021/11/09 10:45:14;;;;;;;;;;;13.10;99.90;;;;;;5078167;28;19924;-73
2021/11/09 10:47:42;;;;;;;;;;;13.20;99.90;;;;;;5077868;28;19925;-73
2021/11/09 10:50:09;;;;;;;;;;;13.20;99.90;;;;;;5077901;28;19935;-73
2021/11/09 10:52:37;;;;;;;;;;;13.20;99.90;;;;;;5077677;28;19924;-72
2021/11/09 10:55:08;;;;;;;;;;;13.20;99.90;;;;;;5077709;28;19938;-73
2021/11/09 10:57:44;;;;;;;;;;;13.30;99.90;;;;;;5078033;28;19990;-72
2021/11/09 11:00:21;;;;;;;;;;;13.30;99.90;;;;;;5077952;28;19925;-73
2021/11/09 11:05:33;;;;;;;;;;;13.40;99.90;;;;;;5077757;28;19985;-73
2021/11/09 11:08:00;;;;;;;;;;;13.30;99.90;;;;;;5077661;28;20268;-73
2021/11/09 11:10:28;;;;;;;;;;;13.40;99.90;;;;;;5077697;28;19925;-73
2021/11/09 11:13:09;;;;;;;;;;;13.40;99.90;;;;;;5077382;28;19936;-73
2021/11/09 11:15:38;;;;;;;;;;;13.40;99.90;;;;;;5076657;28;19924;-73
2021/11/09 11:18:04;;;;;;;;;;;13.40;99.90;;;;;;5077636;28;20328;-73
2021/11/09 11:20:31;;;;;;;;;;;13.50;99.90;;;;;;5077655;28;19924;-73
2021/11/09 11:22:58;;;;;;;;;;;13.60;99.90;;;;;;5077473;28;19925;-73
2021/11/09 11:25:25;;;;;;;;;;;13.60;99.90;;;;;;5077333;28;19928;-73
2021/11/09 11:27:52;;;;;;;;;;;13.50;99.90;;;;;;5077246;28;19974;-73
2021/11/09 11:30:19;;;;;;;;;;;13.50;99.90;;;;;;5077150;28;20352;-73
2021/11/09 11:32:47;;;;;;;;;;;13.40;99.90;;;;;;5076986;28;19925;-73
2021/11/09 11:35:16;;;;;;;;;;;13.40;99.90;;;;;;5076618;28;19924;-73
2021/11/09 11:37:43;;;;;;;;;;;13.40;99.90;;;;;;5077091;28;20289;-73
2021/11/09 11:40:10;;;;;;;;;;;13.40;99.90;;;;;;5076917;28;19924;-73
2021/11/09 11:42:38;;;;;;;;;;;13.40;99.90;;;;;;5076892;28;20265;-73
2021/11/09 11:45:05;;;;;;;;;;;13.40;99.90;;;;;;5076741;28;19929;-73
2021/11/09 11:47:32;;;;;;;;;;;13.40;99.90;;;;;;5077072;28;19925;-73
2021/11/09 11:50:05;;;;;;;;;;;13.40;99.90;;;;;;5076800;28;19934;-73
2021/11/09 11:52:32;;;;;;;;;;;13.40;99.90;;;;;;5076651;28;19924;-73
2021/11/09 11:55:05;;;;;;;;;;;13.40;99.90;;;;;;5076954;28;20019;-73
2021/11/09 11:57:36;;;;;;;;;;;13.40;99.90;;;;;;5076662;28;19975;-73
2021/11/09 12:00:04;;;;;;;;;;;13.50;99.90;;;;;;5076868;28;20318;-73
2021/11/09 12:02:34;;;;;;;;;;;13.50;99.90;;;;;;5076636;28;20094;-73
2021/11/09 12:05:03;;;;;;;;;;;13.60;99.90;;;;;;5076439;28;19932;-73
2021/11/09 12:07:48;;;;;;;;;;;13.60;99.90;;;;;;5076417;28;19934;-73
2021/11/09 12:10:15;;;;;;;;;;;13.60;99.90;;;;;;5076632;28;19928;-73
2021/11/09 12:12:42;;;;;;;;;;;13.70;99.90;;;;;;5076177;28;20005;-73
2021/11/09 12:15:09;;;;;;;;;;;13.70;99.90;;;;;;5076154;28;19931;-73
2021/11/09 12:17:38;;;;;;;;;;;13.70;99.90;;;;;;5076323;28;20347;-73
2021/11/09 12:20:07;;;;;;;;;;;13.70;99.90;;;;;;5076256;28;19994;-73
2021/11/09 12:22:38;;;;;;;;;;;13.80;99.90;;;;;;5076119;28;19928;-73
2021/11/09 12:25:06;;;;;;;;;;;13.70;99.90;;;;;;5076181;28;19935;-73
2021/11/09 12:27:47;;;;;;;;;;;13.80;99.90;;;;;;5075911;28;19934;-73
2021/11/09 12:30:14;;;;;;;;;;;13.70;99.90;;;;;;5075162;28;19924;-73
2021/11/09 12:32:41;;;;;;;;;;;13.70;99.90;;;;;;5075771;28;19939;-73
2021/11/09 12:35:12;;;;;;;;;;;13.70;99.90;;;;;;5075724;28;19925;-73
2021/11/09 12:37:39;;;;;;;;;;;13.70;99.90;;;;;;5076009;28;19999;-73
2021/11/09 12:40:24;;;;;;;;;;;13.70;99.90;;;;;;5075892;28;19958;-73
2021/11/09 12:43:01;;;;;;;;;;;13.70;99.90;;;;;;5075757;28;19924;-73
2021/11/09 12:45:28;;;;;;;;;;;13.70;99.90;;;;;;5075695;28;19924;-73
2021/11/09 12:47:58;;;;;;;;;;;13.80;99.90;;;;;;5074972;28;19935;-73
2021/11/09 12:50:27;;;;;;;;;;;13.80;99.90;;;;;;5075518;28;20348;-73
2021/11/09 12:53:02;;;;;;;;;;;13.90;99.90;;;;;;5075721;28;19929;-73
2021/11/09 12:55:29;;;;;;;;;;;13.90;99.90;;;;;;5075494;28;19925;-73
2021/11/09 12:57:56;;;;;;;;;;;13.90;99.90;;;;;;5075390;28;19935;-70
2021/11/09 13:00:28;;;;;;;;;;;13.90;99.90;;;;;;5075474;28;19928;-70
2021/11/09 13:02:56;;;;;;;;;;;13.90;99.90;;;;;;5075473;28;19928;-71
2021/11/09 13:05:27;;;;;;;;;;;13.90;99.90;;;;;;5075491;28;20023;-70
2021/11/09 13:08:02;;;;;;;;;;;13.90;99.90;;;;;;5074149;28;19936;-70
2021/11/09 13:10:29;;;;;;;;;;;13.90;99.90;;;;;;5074974;28;19925;-70
2021/11/09 13:12:56;;;;;;;;;;;13.90;99.90;;;;;;5074530;28;20370;-70
2021/11/09 13:15:23;;;;;;;;;;;14.00;99.90;;;;;;5075508;28;19939;-70
2021/11/09 13:17:53;;;;;;;;;;;13.90;99.90;;;;;;5075252;28;19934;-70
2021/11/09 13:20:21;;;;;;;;;;;14.00;99.90;;;;;;5075272;28;20279;-70
2021/11/09 13:22:51;;;;;;;;;;;13.90;99.90;;;;;;5075095;28;19986;-72
2021/11/09 13:25:20;;;;;;;;;;;13.90;99.90;;;;;;5075503;28;19938;-73
2021/11/09 13:27:48;;;;;;;;;;;13.90;99.90;;;;;;5075088;28;19925;-73
2021/11/09 13:30:16;;;;;;;;;;;13.80;99.90;;;;;;5075461;28;19935;-72
2021/11/09 13:32:43;;;;;;;;;;;13.90;99.90;;;;;;5075143;28;19925;-73
2021/11/09 13:35:18;;;;;;;;;;;13.90;99.90;;;;;;5074933;28;19936;-71
2021/11/09 13:37:45;;;;;;;;;;;13.90;99.90;;;;;;5075076;28;19925;-72
2021/11/09 13:40:12;;;;;;;;;;;13.90;99.90;;;;;;5075210;28;19924;-72
2021/11/09 13:42:40;;;;;;;;;;;13.90;99.90;;;;;;5075002;28;20356;-70
2021/11/09 13:45:12;;;;;;;;;;;13.90;99.90;;;;;;5075140;28;19948;-71
2021/11/09 13:47:39;;;;;;;;;;;13.90;99.90;;;;;;5075142;28;19924;-70
2021/11/09 13:50:07;;;;;;;;;;;13.90;99.90;;;;;;5074838;28;20370;-70
2021/11/09 13:52:34;;;;;;;;;;;13.90;99.90;;;;;;5074137;28;19925;-75
2021/11/09 13:55:00;;;;;;;;;;;13.90;99.90;;;;;;5075375;28;20035;-73
2021/11/09 13:57:30;;;;;;;;;;;13.90;99.90;;;;;;5074930;28;19935;-73
2021/11/09 13:59:58;;;;;;;;;;;13.90;99.90;;;;;;5077625;28;20336;-73
2021/11/09 14:02:31;;;;;;;;;;;13.90;99.90;;;;;;5076177;28;19928;-73
2021/11/09 14:07:54;;;;;;;;;;;13.90;99.90;;;;;;5077908;28;19921;-73
2021/11/09 14:16:02;;;;;;;;;;;13.80;99.90;;;;;;5076582;28;19924;-71
2021/11/09 14:18:29;;;;;;;;;;;13.80;99.90;;;;;;5079081;28;19925;-71
2021/11/09 14:20:56;;;;;;;;;;;13.80;99.90;;;;;;5078208;28;20263;-71
2021/11/09 14:23:32;;;;;;;;;;;13.80;99.90;;;;;;5076386;28;19929;-73
2021/11/09 14:26:16;;;;;;;;;;;13.80;99.90;;;;;;5077877;28;19935;-73
2021/11/09 14:28:45;;;;;;;;;;;13.80;99.90;;;;;;5078272;28;19938;-75
2021/11/09 14:31:16;;;;;;;;;;;13.80;99.90;;;;;;5076568;28;19959;-70
2021/11/09 14:33:46;;;;;;;;;;;13.80;99.90;;;;;;5078131;28;19934;-70
2021/11/09 14:36:25;;;;;;;;;;;13.80;99.90;;;;;;5077625;28;20050;-70
2021/11/09 14:39:06;;;;;;;;;;;13.80;99.90;;;;;;5077810;28;19991;-70
2021/11/09 14:41:38;;;;;;;;;;;13.80;99.90;;;;;;5076453;28;19931;-70
2021/11/09 14:44:07;;;;;;;;;;;;;;;;;;5077057;28;19925;-69
2021/11/09 14:46:39;;;;;;;;;;;13.80;99.90;;;;;;5077705;28;20015;-70
2021/11/09 14:49:06;;;;;;;;;;;13.80;99.90;;;;;;5076073;28;20001;-70
2021/11/09 14:51:34;;;;;;;;;;;;;;;;;;5077444;28;20564;-70
2021/11/09 14:54:11;;;;;;;;;;;13.80;99.90;;;;;;5077352;28;19931;-70
2021/11/09 14:56:39;;;;;;;;;;;13.80;99.90;;;;;;5077203;28;20288;-70
2021/11/09 14:59:06;;;;;;;;;;;13.80;99.90;;;;;;5077713;28;19928;-70
2021/11/09 15:01:36;;;;;;;;;;;;;;;;;;5077675;28;20007;-70
2021/11/09 15:04:04;;;;;;;;;;;;;;;;;;5077946;28;20319;-70
2021/11/09 15:06:41;;;;;;;;;;;13.60;99.90;;;;;;5077804;28;19924;-70
2021/11/09 15:09:17;;;;;;;;;;;13.60;99.90;;;;;;5077755;28;20015;-70
2021/11/09 15:11:52;;;;;;;;;;;13.60;99.90;;;;;;5076530;28;19931;-70
2021/11/09 15:25:28;;;;;;;;;;;13.40;99.90;;;;;;5077950;28;19942;-74
2021/11/09 15:28:01;;;;;;;;;;;13.40;99.90;;;;;;5077329;28;19924;-73
2021/11/09 15:30:36;;;;;;;;;;;13.50;99.90;;;;;;5077423;28;19924;-73
2021/11/09 15:33:03;;;;;;;;;;;13.40;99.90;;;;;;5077080;28;19986;-73
2021/11/09 15:35:40;;;;;;;;;;;13.40;99.90;;;;;;5076995;28;19924;-73
2021/11/09 15:38:09;;;;;;;;;;;13.40;99.90;;;;;;5075283;28;19932;-72
2021/11/09 15:40:36;;;;;;;;;;;13.40;99.90;;;;;;5073277;28;19955;-73
2021/11/09 15:43:03;;;;;;;;;;;13.40;99.90;;;;;;5077169;28;19925;-73
2021/11/09 15:45:30;;;;;;;;;;;13.30;99.90;;;;;;5076779;28;20337;-72
2021/11/09 15:47:57;;;;;;;;;;;13.30;99.90;;;;;;5077059;28;19989;-72
2021/11/09 15:50:24;;;;;;;;;;;13.30;99.90;;;;;;5076933;28;19951;-72
2021/11/09 15:52:51;;;;;;;;;;;13.40;99.90;;;;;;5076955;28;20359;-72
2021/11/09 15:55:19;;;;;;;;;;;13.30;99.90;;;;;;5076538;28;19925;-73
2021/11/09 15:57:46;;;;;;;;;;;13.30;99.90;;;;;;5076672;28;19928;-72
2021/11/09 16:00:13;;;;;;;;;;;13.30;99.90;;;;;;5076890;28;19948;-72
2021/11/09 16:02:42;;;;;;;;;;;13.30;99.90;;;;;;5076723;28;19951;-73
2021/11/09 16:05:09;;;;;;;;;;;13.30;99.90;;;;;;5076436;28;20022;-73
2021/11/09 16:07:36;;;;;;;;;;;13.30;99.90;;;;;;5076670;28;20022;-74
2021/11/09 16:10:04;;;;;;;;;;;13.30;99.90;;;;;;5077142;28;19925;-86
2021/11/09 16:12:32;;;;;;;;;;;13.30;99.90;;;;;;5076809;28;19974;-73
2021/11/09 16:15:02;;;;;;;;;;;13.30;99.90;;;;;;5076741;28;19924;-72
2021/11/09 16:17:28;;;;;;;;;;;13.20;99.90;;;;;;5076388;28;19955;-72
2021/11/09 16:19:55;;;;;;;;;;;13.20;99.90;;;;;;5076156;28;19924;-72
2021/11/09 16:22:25;;;;;;;;;;;13.30;99.90;;;;;;5075925;28;19932;-72
2021/11/09 16:24:52;;;;;;;;;;;13.30;99.90;;;;;;5075918;28;19938;-73
2021/11/09 16:27:18;;;;;;;;;;;13.30;99.90;;;;;;5075618;28;19935;-73
2021/11/09 16:30:06;;;;;;;;;;;13.30;99.90;;;;;;5075148;28;20572;-72